sensor_id;sensor_type;location;lat;lon;timestamp;P1;durP1;ratioP1;P2;durP2;ratioP2
69906;SDS011;57190;47.918;8.112;2023-04-03T00:00:11;1.43;;;1.43;;
69906;SDS011;57190;47.918;8.112;2023-04-03T00:02:38;1.50;;;1.40;;
69906;SDS011;57190;47.918;8.112;2023-04-03T00:05:03;1.40;;;1.30;;
69906;SDS011;57190;47.918;8.112;2023-04-03T00:07:29;1.80;;;1.70;;
69906;SDS011;57190;47.918;8.112;2023-04-03T00:09:55;1.50;;;1.40;;
69906;SDS011;57190;47.918;8.112;2023-04-03T00:12:21;1.63;;;1.53;;
69906;SDS011;57190;47.918;8.112;2023-04-03T00:14:46;1.83;;;1.73;;
69906;SDS011;57190;47.918;8.112;2023-04-03T00:17:12;1.90;;;1.80;;
69906;SDS011;57190;47.918;8.112;2023-04-03T00:19:37;1.70;;;1.60;;
69906;SDS011;57190;47.918;8.112;2023-04-03T00:22:03;1.67;;;1.57;;
69906;SDS011;57190;47.918;8.112;2023-04-03T00:24:28;1.90;;;1.80;;
69906;SDS011;57190;47.918;8.112;2023-04-03T00:26:53;1.90;;;1.80;;
69906;SDS011;57190;47.918;8.112;2023-04-03T00:29:19;2.20;;;2.10;;
69906;SDS011;57190;47.918;8.112;2023-04-03T00:31:44;1.87;;;1.77;;
69906;SDS011;57190;47.918;8.112;2023-04-03T00:34:10;2.13;;;2.03;;
69906;SDS011;57190;47.918;8.112;2023-04-03T00:36:35;1.90;;;1.80;;
69906;SDS011;57190;47.918;8.112;2023-04-03T00:39:01;2.90;;;2.03;;
69906;SDS011;57190;47.918;8.112;2023-04-03T00:41:26;2.30;;;2.10;;
69906;SDS011;57190;47.918;8.112;2023-04-03T00:43:52;1.97;;;1.87;;
69906;SDS011;57190;47.918;8.112;2023-04-03T00:46:17;2.67;;;2.47;;
69906;SDS011;57190;47.918;8.112;2023-04-03T00:48:44;4.37;;;2.00;;
69906;SDS011;57190;47.918;8.112;2023-04-03T00:51:12;2.67;;;2.27;;
69906;SDS011;57190;47.918;8.112;2023-04-03T00:53:43;2.47;;;1.90;;
69906;SDS011;57190;47.918;8.112;2023-04-03T00:56:13;2.67;;;2.23;;
69906;SDS011;57190;47.918;8.112;2023-04-03T00:58:47;6.57;;;2.17;;
69906;SDS011;57190;47.918;8.112;2023-04-03T01:01:18;2.40;;;2.27;;
69906;SDS011;57190;47.918;8.112;2023-04-03T01:03:48;3.53;;;2.00;;
69906;SDS011;57190;47.918;8.112;2023-04-03T01:06:14;2.33;;;1.90;;
69906;SDS011;57190;47.918;8.112;2023-04-03T01:08:42;1.90;;;1.80;;
69906;SDS011;57190;47.918;8.112;2023-04-03T01:11:08;1.87;;;1.77;;
69906;SDS011;57190;47.918;8.112;2023-04-03T01:13:33;1.83;;;1.73;;
69906;SDS011;57190;47.918;8.112;2023-04-03T01:16:06;1.57;;;1.47;;
69906;SDS011;57190;47.918;8.112;2023-04-03T01:18:32;1.70;;;1.60;;
69906;SDS011;57190;47.918;8.112;2023-04-03T01:26:37;0.93;;;0.93;;
69906;SDS011;57190;47.918;8.112;2023-04-03T01:29:02;1.40;;;1.30;;
69906;SDS011;57190;47.918;8.112;2023-04-03T01:31:41;1.30;;;1.20;;
69906;SDS011;57190;47.918;8.112;2023-04-03T01:34:08;1.00;;;1.00;;
69906;SDS011;57190;47.918;8.112;2023-04-03T01:36:33;1.10;;;1.10;;
69906;SDS011;57190;47.918;8.112;2023-04-03T01:38:59;1.03;;;1.03;;
69906;SDS011;57190;47.918;8.112;2023-04-03T01:41:25;1.60;;;1.17;;
69906;SDS011;57190;47.918;8.112;2023-04-03T01:43:51;1.10;;;1.10;;
69906;SDS011;57190;47.918;8.112;2023-04-03T01:46:17;1.20;;;1.20;;
69906;SDS011;57190;47.918;8.112;2023-04-03T01:48:43;1.47;;;1.37;;
69906;SDS011;57190;47.918;8.112;2023-04-03T01:51:09;1.13;;;1.03;;
69906;SDS011;57190;47.918;8.112;2023-04-03T01:53:35;1.33;;;1.30;;
69906;SDS011;57190;47.918;8.112;2023-04-03T01:56:00;1.30;;;1.30;;
69906;SDS011;57190;47.918;8.112;2023-04-03T01:58:26;1.37;;;1.33;;
69906;SDS011;57190;47.918;8.112;2023-04-03T02:00:51;1.63;;;1.53;;
69906;SDS011;57190;47.918;8.112;2023-04-03T02:03:17;1.40;;;1.30;;
69906;SDS011;57190;47.918;8.112;2023-04-03T02:05:43;1.50;;;1.40;;
69906;SDS011;57190;47.918;8.112;2023-04-03T02:08:09;1.23;;;1.20;;
69906;SDS011;57190;47.918;8.112;2023-04-03T02:10:35;1.60;;;1.50;;
69906;SDS011;57190;47.918;8.112;2023-04-03T02:13:01;1.33;;;1.23;;
69906;SDS011;57190;47.918;8.112;2023-04-03T02:15:26;1.47;;;1.37;;
69906;SDS011;57190;47.918;8.112;2023-04-03T02:17:52;1.83;;;1.73;;
69906;SDS011;57190;47.918;8.112;2023-04-03T02:20:17;1.60;;;1.50;;
69906;SDS011;57190;47.918;8.112;2023-04-03T02:22:43;1.60;;;1.50;;
69906;SDS011;57190;47.918;8.112;2023-04-03T02:25:09;1.80;;;1.70;;
69906;SDS011;57190;47.918;8.112;2023-04-03T02:27:35;1.73;;;1.63;;
69906;SDS011;57190;47.918;8.112;2023-04-03T02:30:01;1.80;;;1.70;;
69906;SDS011;57190;47.918;8.112;2023-04-03T02:32:27;1.63;;;1.53;;
69906;SDS011;57190;47.918;8.112;2023-04-03T02:34:53;2.17;;;2.07;;
69906;SDS011;57190;47.918;8.112;2023-04-03T02:37:18;2.13;;;2.00;;
69906;SDS011;57190;47.918;8.112;2023-04-03T02:39:44;2.10;;;2.00;;
69906;SDS011;57190;47.918;8.112;2023-04-03T02:42:09;1.90;;;1.80;;
69906;SDS011;57190;47.918;8.112;2023-04-03T02:44:35;1.90;;;1.80;;
69906;SDS011;57190;47.918;8.112;2023-04-03T02:47:01;2.10;;;2.00;;
69906;SDS011;57190;47.918;8.112;2023-04-03T02:49:27;2.17;;;2.07;;
69906;SDS011;57190;47.918;8.112;2023-04-03T02:51:53;2.37;;;2.20;;
69906;SDS011;57190;47.918;8.112;2023-04-03T02:54:18;2.43;;;2.23;;
69906;SDS011;57190;47.918;8.112;2023-04-03T02:56:44;1.90;;;1.80;;
69906;SDS011;57190;47.918;8.112;2023-04-03T02:59:09;2.13;;;2.03;;
69906;SDS011;57190;47.918;8.112;2023-04-03T03:01:35;2.10;;;2.00;;
69906;SDS011;57190;47.918;8.112;2023-04-03T03:04:01;2.30;;;2.17;;
69906;SDS011;57190;47.918;8.112;2023-04-03T03:06:26;2.17;;;2.07;;
69906;SDS011;57190;47.918;8.112;2023-04-03T03:08:52;2.07;;;1.97;;
69906;SDS011;57190;47.918;8.112;2023-04-03T03:11:18;2.23;;;2.10;;
69906;SDS011;57190;47.918;8.112;2023-04-03T03:13:43;2.20;;;2.07;;
69906;SDS011;57190;47.918;8.112;2023-04-03T03:16:09;2.37;;;2.17;;
69906;SDS011;57190;47.918;8.112;2023-04-03T03:18:35;2.20;;;2.10;;
69906;SDS011;57190;47.918;8.112;2023-04-03T03:21:01;2.30;;;2.20;;
69906;SDS011;57190;47.918;8.112;2023-04-03T03:23:28;2.20;;;2.10;;
69906;SDS011;57190;47.918;8.112;2023-04-03T03:25:57;2.60;;;2.40;;
69906;SDS011;57190;47.918;8.112;2023-04-03T03:28:28;2.13;;;2.03;;
69906;SDS011;57190;47.918;8.112;2023-04-03T03:30:54;2.47;;;2.10;;
69906;SDS011;57190;47.918;8.112;2023-04-03T03:33:19;2.37;;;2.27;;
69906;SDS011;57190;47.918;8.112;2023-04-03T03:35:45;2.70;;;2.50;;
69906;SDS011;57190;47.918;8.112;2023-04-03T03:38:29;4.97;;;2.47;;
69906;SDS011;57190;47.918;8.112;2023-04-03T03:40:55;7.43;;;2.53;;
69906;SDS011;57190;47.918;8.112;2023-04-03T03:43:20;3.13;;;2.53;;
69906;SDS011;57190;47.918;8.112;2023-04-03T03:45:49;2.40;;;2.30;;
69906;SDS011;57190;47.918;8.112;2023-04-03T03:48:16;3.03;;;2.83;;
69906;SDS011;57190;47.918;8.112;2023-04-03T03:50:41;3.10;;;2.90;;
69906;SDS011;57190;47.918;8.112;2023-04-03T03:53:07;3.50;;;3.20;;
69906;SDS011;57190;47.918;8.112;2023-04-03T03:55:32;3.07;;;2.87;;
69906;SDS011;57190;47.918;8.112;2023-04-03T03:57:58;3.83;;;2.93;;
69906;SDS011;57190;47.918;8.112;2023-04-03T04:00:25;2.83;;;2.63;;
69906;SDS011;57190;47.918;8.112;2023-04-03T04:02:50;2.73;;;2.53;;
69906;SDS011;57190;47.918;8.112;2023-04-03T04:05:16;2.60;;;2.40;;
69906;SDS011;57190;47.918;8.112;2023-04-03T04:07:41;2.47;;;2.37;;
69906;SDS011;57190;47.918;8.112;2023-04-03T04:10:07;3.30;;;3.10;;
69906;SDS011;57190;47.918;8.112;2023-04-03T04:12:33;3.50;;;3.30;;
69906;SDS011;57190;47.918;8.112;2023-04-03T04:15:00;2.77;;;2.57;;
69906;SDS011;57190;47.918;8.112;2023-04-03T04:17:26;3.53;;;3.23;;
69906;SDS011;57190;47.918;8.112;2023-04-03T04:19:52;3.30;;;3.07;;
69906;SDS011;57190;47.918;8.112;2023-04-03T04:22:17;3.53;;;3.23;;
69906;SDS011;57190;47.918;8.112;2023-04-03T04:24:43;2.87;;;2.67;;
69906;SDS011;57190;47.918;8.112;2023-04-03T04:27:08;3.13;;;2.93;;
69906;SDS011;57190;47.918;8.112;2023-04-03T04:29:34;3.23;;;2.83;;
69906;SDS011;57190;47.918;8.112;2023-04-03T04:32:02;3.00;;;2.80;;
69906;SDS011;57190;47.918;8.112;2023-04-03T04:34:28;2.90;;;2.70;;
69906;SDS011;57190;47.918;8.112;2023-04-03T04:36:54;2.80;;;2.60;;
69906;SDS011;57190;47.918;8.112;2023-04-03T04:39:20;2.93;;;2.73;;
69906;SDS011;57190;47.918;8.112;2023-04-03T04:41:45;2.97;;;2.77;;
69906;SDS011;57190;47.918;8.112;2023-04-03T04:44:11;3.30;;;3.03;;
69906;SDS011;57190;47.918;8.112;2023-04-03T04:46:36;3.20;;;3.00;;
69906;SDS011;57190;47.918;8.112;2023-04-03T04:49:02;3.10;;;2.90;;
69906;SDS011;57190;47.918;8.112;2023-04-03T04:51:27;3.03;;;2.83;;
69906;SDS011;57190;47.918;8.112;2023-04-03T04:53:52;3.20;;;3.00;;
69906;SDS011;57190;47.918;8.112;2023-04-03T04:56:18;3.30;;;3.10;;
69906;SDS011;57190;47.918;8.112;2023-04-03T04:58:43;5.17;;;3.50;;
69906;SDS011;57190;47.918;8.112;2023-04-03T05:01:10;3.30;;;3.10;;
69906;SDS011;57190;47.918;8.112;2023-04-03T05:03:36;3.10;;;2.90;;
69906;SDS011;57190;47.918;8.112;2023-04-03T05:06:02;2.90;;;2.70;;
69906;SDS011;57190;47.918;8.112;2023-04-03T05:08:28;2.60;;;2.50;;
69906;SDS011;57190;47.918;8.112;2023-04-03T05:10:54;2.93;;;2.73;;
69906;SDS011;57190;47.918;8.112;2023-04-03T05:13:19;3.13;;;2.93;;
69906;SDS011;57190;47.918;8.112;2023-04-03T05:15:46;3.07;;;2.87;;
69906;SDS011;57190;47.918;8.112;2023-04-03T05:18:14;2.80;;;2.60;;
69906;SDS011;57190;47.918;8.112;2023-04-03T05:20:40;3.27;;;3.07;;
69906;SDS011;57190;47.918;8.112;2023-04-03T05:23:05;3.40;;;3.10;;
69906;SDS011;57190;47.918;8.112;2023-04-03T05:25:31;3.33;;;3.13;;
69906;SDS011;57190;47.918;8.112;2023-04-03T05:27:56;3.07;;;2.87;;
69906;SDS011;57190;47.918;8.112;2023-04-03T05:30:22;2.73;;;2.63;;
69906;SDS011;57190;47.918;8.112;2023-04-03T05:32:47;2.83;;;2.63;;
69906;SDS011;57190;47.918;8.112;2023-04-03T05:35:13;2.30;;;2.20;;
69906;SDS011;57190;47.918;8.112;2023-04-03T05:37:39;3.10;;;2.90;;
69906;SDS011;57190;47.918;8.112;2023-04-03T05:43:27;3.10;;;2.90;;
69906;SDS011;57190;47.918;8.112;2023-04-03T05:45:52;2.50;;;2.40;;
69906;SDS011;57190;47.918;8.112;2023-04-03T05:48:18;2.30;;;2.20;;
69906;SDS011;57190;47.918;8.112;2023-04-03T05:50:43;3.10;;;2.90;;
69906;SDS011;57190;47.918;8.112;2023-04-03T05:53:14;2.50;;;2.40;;
69906;SDS011;57190;47.918;8.112;2023-04-03T05:55:44;2.47;;;2.30;;
69906;SDS011;57190;47.918;8.112;2023-04-03T05:58:10;2.83;;;2.63;;
69906;SDS011;57190;47.918;8.112;2023-04-03T06:00:35;2.43;;;2.17;;
69906;SDS011;57190;47.918;8.112;2023-04-03T06:03:01;2.60;;;2.40;;
69906;SDS011;57190;47.918;8.112;2023-04-03T06:05:26;2.37;;;2.27;;
69906;SDS011;57190;47.918;8.112;2023-04-03T06:07:52;2.43;;;2.23;;
69906;SDS011;57190;47.918;8.112;2023-04-03T06:10:18;2.43;;;2.23;;
69906;SDS011;57190;47.918;8.112;2023-04-03T06:12:45;2.07;;;1.97;;
69906;SDS011;57190;47.918;8.112;2023-04-03T06:15:10;1.90;;;1.80;;
69906;SDS011;57190;47.918;8.112;2023-04-03T06:17:36;2.00;;;1.90;;
69906;SDS011;57190;47.918;8.112;2023-04-03T06:20:02;2.30;;;2.20;;
69906;SDS011;57190;47.918;8.112;2023-04-03T06:22:29;2.10;;;2.00;;
69906;SDS011;57190;47.918;8.112;2023-04-03T06:24:55;5.87;;;5.23;;
69906;SDS011;57190;47.918;8.112;2023-04-03T06:27:21;2.70;;;2.50;;
69906;SDS011;57190;47.918;8.112;2023-04-03T06:29:47;2.40;;;2.20;;
69906;SDS011;57190;47.918;8.112;2023-04-03T06:32:14;2.43;;;2.30;;
69906;SDS011;57190;47.918;8.112;2023-04-03T06:34:40;2.40;;;2.20;;
69906;SDS011;57190;47.918;8.112;2023-04-03T06:37:06;2.63;;;2.53;;
69906;SDS011;57190;47.918;8.112;2023-04-03T06:39:46;2.70;;;2.50;;
69906;SDS011;57190;47.918;8.112;2023-04-03T06:42:12;2.67;;;2.47;;
69906;SDS011;57190;47.918;8.112;2023-04-03T06:44:38;2.57;;;2.37;;
69906;SDS011;57190;47.918;8.112;2023-04-03T06:47:04;3.27;;;2.97;;
69906;SDS011;57190;47.918;8.112;2023-04-03T06:49:29;3.20;;;2.90;;
69906;SDS011;57190;47.918;8.112;2023-04-03T06:51:55;3.10;;;2.90;;
69906;SDS011;57190;47.918;8.112;2023-04-03T06:54:21;5.33;;;2.87;;
69906;SDS011;57190;47.918;8.112;2023-04-03T06:56:47;3.33;;;3.13;;
69906;SDS011;57190;47.918;8.112;2023-04-03T06:59:13;3.67;;;3.23;;
69906;SDS011;57190;47.918;8.112;2023-04-03T07:01:39;3.17;;;2.97;;
69906;SDS011;57190;47.918;8.112;2023-04-03T07:04:06;3.83;;;3.53;;
69906;SDS011;57190;47.918;8.112;2023-04-03T07:06:31;4.10;;;3.80;;
69906;SDS011;57190;47.918;8.112;2023-04-03T07:08:58;4.43;;;4.03;;
69906;SDS011;57190;47.918;8.112;2023-04-03T07:11:24;3.53;;;3.23;;
69906;SDS011;57190;47.918;8.112;2023-04-03T07:13:51;3.30;;;3.10;;
69906;SDS011;57190;47.918;8.112;2023-04-03T07:16:17;4.33;;;3.67;;
69906;SDS011;57190;47.918;8.112;2023-04-03T07:18:42;3.73;;;3.43;;
69906;SDS011;57190;47.918;8.112;2023-04-03T07:21:08;4.07;;;3.77;;
69906;SDS011;57190;47.918;8.112;2023-04-03T07:23:33;3.40;;;3.10;;
69906;SDS011;57190;47.918;8.112;2023-04-03T07:25:59;3.90;;;3.60;;
69906;SDS011;57190;47.918;8.112;2023-04-03T07:28:24;3.27;;;3.07;;
69906;SDS011;57190;47.918;8.112;2023-04-03T07:33:18;3.77;;;3.47;;
69906;SDS011;57190;47.918;8.112;2023-04-03T07:35:45;5.07;;;3.60;;
69906;SDS011;57190;47.918;8.112;2023-04-03T07:38:11;5.57;;;5.07;;
69906;SDS011;57190;47.918;8.112;2023-04-03T07:40:37;3.97;;;3.67;;
69906;SDS011;57190;47.918;8.112;2023-04-03T07:43:05;4.07;;;3.77;;
69906;SDS011;57190;47.918;8.112;2023-04-03T07:45:31;4.20;;;3.90;;
69906;SDS011;57190;47.918;8.112;2023-04-03T07:47:57;3.10;;;2.90;;
69906;SDS011;57190;47.918;8.112;2023-04-03T07:50:22;3.73;;;3.43;;
69906;SDS011;57190;47.918;8.112;2023-04-03T07:52:48;3.20;;;3.00;;
69906;SDS011;57190;47.918;8.112;2023-04-03T07:55:15;4.20;;;3.90;;
69906;SDS011;57190;47.918;8.112;2023-04-03T07:57:42;4.20;;;3.90;;
69906;SDS011;57190;47.918;8.112;2023-04-03T08:00:07;4.00;;;3.70;;
69906;SDS011;57190;47.918;8.112;2023-04-03T08:02:33;4.33;;;3.87;;
69906;SDS011;57190;47.918;8.112;2023-04-03T08:04:59;4.57;;;4.23;;
69906;SDS011;57190;47.918;8.112;2023-04-03T08:07:25;3.83;;;3.60;;
69906;SDS011;57190;47.918;8.112;2023-04-03T08:09:51;4.00;;;3.60;;
69906;SDS011;57190;47.918;8.112;2023-04-03T08:12:17;3.77;;;3.47;;
69906;SDS011;57190;47.918;8.112;2023-04-03T08:14:43;4.40;;;3.37;;
69906;SDS011;57190;47.918;8.112;2023-04-03T08:17:08;3.60;;;3.40;;
69906;SDS011;57190;47.918;8.112;2023-04-03T08:19:37;3.50;;;3.30;;
69906;SDS011;57190;47.918;8.112;2023-04-03T08:22:03;3.63;;;3.37;;
69906;SDS011;57190;47.918;8.112;2023-04-03T08:24:30;3.40;;;3.20;;
69906;SDS011;57190;47.918;8.112;2023-04-03T08:26:56;3.40;;;3.10;;
69906;SDS011;57190;47.918;8.112;2023-04-03T08:29:22;4.13;;;3.73;;
69906;SDS011;57190;47.918;8.112;2023-04-03T08:31:49;3.50;;;3.27;;
69906;SDS011;57190;47.918;8.112;2023-04-03T08:34:15;3.60;;;3.40;;
69906;SDS011;57190;47.918;8.112;2023-04-03T08:36:41;3.07;;;2.87;;
69906;SDS011;57190;47.918;8.112;2023-04-03T08:39:07;3.43;;;3.23;;
69906;SDS011;57190;47.918;8.112;2023-04-03T08:41:37;3.77;;;3.47;;
69906;SDS011;57190;47.918;8.112;2023-04-03T08:49:46;3.40;;;3.10;;
69906;SDS011;57190;47.918;8.112;2023-04-03T08:58:01;2.70;;;2.50;;
69906;SDS011;57190;47.918;8.112;2023-04-03T09:00:43;2.33;;;2.10;;
69906;SDS011;57190;47.918;8.112;2023-04-03T09:03:13;2.63;;;2.43;;
69906;SDS011;57190;47.918;8.112;2023-04-03T09:05:51;1.80;;;1.70;;
69906;SDS011;57190;47.918;8.112;2023-04-03T09:08:21;2.23;;;2.03;;
69906;SDS011;57190;47.918;8.112;2023-04-03T09:21:56;2.10;;;1.90;;
69906;SDS011;57190;47.918;8.112;2023-04-03T09:24:23;1.93;;;1.83;;
69906;SDS011;57190;47.918;8.112;2023-04-03T09:27:01;2.23;;;2.13;;
69906;SDS011;57190;47.918;8.112;2023-04-03T09:29:30;2.07;;;1.97;;
69906;SDS011;57190;47.918;8.112;2023-04-03T09:31:59;2.00;;;1.90;;
69906;SDS011;57190;47.918;8.112;2023-04-03T09:34:27;2.40;;;2.30;;
69906;SDS011;57190;47.918;8.112;2023-04-03T09:36:57;2.20;;;2.00;;
69906;SDS011;57190;47.918;8.112;2023-04-03T09:39:30;2.10;;;1.90;;
69906;SDS011;57190;47.918;8.112;2023-04-03T09:42:04;2.00;;;1.90;;
69906;SDS011;57190;47.918;8.112;2023-04-03T09:44:40;2.40;;;2.20;;
69906;SDS011;57190;47.918;8.112;2023-04-03T09:47:27;2.80;;;2.60;;
69906;SDS011;57190;47.918;8.112;2023-04-03T09:52:34;2.70;;;2.57;;
69906;SDS011;57190;47.918;8.112;2023-04-03T09:55:06;2.33;;;2.13;;
69906;SDS011;57190;47.918;8.112;2023-04-03T09:57:41;2.90;;;2.10;;
69906;SDS011;57190;47.918;8.112;2023-04-03T10:03:02;2.37;;;2.17;;
69906;SDS011;57190;47.918;8.112;2023-04-03T10:05:36;2.00;;;1.90;;
69906;SDS011;57190;47.918;8.112;2023-04-03T10:10:38;2.17;;;2.07;;
69906;SDS011;57190;47.918;8.112;2023-04-03T10:13:12;2.20;;;2.10;;
69906;SDS011;57190;47.918;8.112;2023-04-03T10:15:43;2.67;;;2.47;;
69906;SDS011;57190;47.918;8.112;2023-04-03T10:18:29;2.60;;;2.40;;
69906;SDS011;57190;47.918;8.112;2023-04-03T10:21:00;1.97;;;1.87;;
69906;SDS011;57190;47.918;8.112;2023-04-03T10:23:40;1.97;;;1.80;;
69906;SDS011;57190;47.918;8.112;2023-04-03T10:28:57;2.20;;;1.80;;
69906;SDS011;57190;47.918;8.112;2023-04-03T10:34:16;2.13;;;2.03;;
69906;SDS011;57190;47.918;8.112;2023-04-03T10:39:43;2.00;;;1.90;;
69906;SDS011;57190;47.918;8.112;2023-04-03T10:58:44;2.30;;;2.20;;
69906;SDS011;57190;47.918;8.112;2023-04-03T11:01:19;2.53;;;2.03;;
69906;SDS011;57190;47.918;8.112;2023-04-03T11:03:54;2.73;;;2.27;;
69906;SDS011;57190;47.918;8.112;2023-04-03T11:06:24;2.30;;;2.20;;
69906;SDS011;57190;47.918;8.112;2023-04-03T11:08:54;2.57;;;2.37;;
69906;SDS011;57190;47.918;8.112;2023-04-03T11:11:30;1.90;;;1.80;;
69906;SDS011;57190;47.918;8.112;2023-04-03T11:16:53;2.40;;;2.30;;
69906;SDS011;57190;47.918;8.112;2023-04-03T11:22:34;2.13;;;2.03;;
69906;SDS011;57190;47.918;8.112;2023-04-03T11:27:49;2.20;;;2.10;;
69906;SDS011;57190;47.918;8.112;2023-04-03T11:30:20;2.30;;;2.10;;
69906;SDS011;57190;47.918;8.112;2023-04-03T11:33:10;2.40;;;2.20;;
69906;SDS011;57190;47.918;8.112;2023-04-03T11:35:47;2.50;;;2.30;;
69906;SDS011;57190;47.918;8.112;2023-04-03T11:38:30;2.93;;;2.20;;
69906;SDS011;57190;47.918;8.112;2023-04-03T11:41:02;2.27;;;2.17;;
69906;SDS011;57190;47.918;8.112;2023-04-03T11:43:31;2.13;;;1.97;;
69906;SDS011;57190;47.918;8.112;2023-04-03T11:46:04;2.10;;;2.00;;
69906;SDS011;57190;47.918;8.112;2023-04-03T11:53:26;2.73;;;2.53;;
69906;SDS011;57190;47.918;8.112;2023-04-03T12:01:46;2.90;;;2.67;;
69906;SDS011;57190;47.918;8.112;2023-04-03T12:04:16;2.60;;;2.20;;
69906;SDS011;57190;47.918;8.112;2023-04-03T12:15:12;2.40;;;2.30;;
69906;SDS011;57190;47.918;8.112;2023-04-03T12:17:46;2.70;;;2.50;;
69906;SDS011;57190;47.918;8.112;2023-04-03T12:20:58;2.30;;;2.20;;
69906;SDS011;57190;47.918;8.112;2023-04-03T12:26:26;2.43;;;2.30;;
69906;SDS011;57190;47.918;8.112;2023-04-03T12:34:51;2.10;;;2.00;;
69906;SDS011;57190;47.918;8.112;2023-04-03T12:43:02;2.13;;;2.03;;
69906;SDS011;57190;47.918;8.112;2023-04-03T12:45:41;2.03;;;1.93;;
69906;SDS011;57190;47.918;8.112;2023-04-03T12:48:13;2.47;;;2.30;;
69906;SDS011;57190;47.918;8.112;2023-04-03T12:50:47;2.07;;;1.87;;
69906;SDS011;57190;47.918;8.112;2023-04-03T12:53:16;3.13;;;2.27;;
69906;SDS011;57190;47.918;8.112;2023-04-03T12:55:47;2.37;;;2.20;;
69906;SDS011;57190;47.918;8.112;2023-04-03T13:01:03;2.37;;;2.27;;
69906;SDS011;57190;47.918;8.112;2023-04-03T13:03:44;2.50;;;2.30;;
69906;SDS011;57190;47.918;8.112;2023-04-03T13:06:17;2.57;;;2.47;;
69906;SDS011;57190;47.918;8.112;2023-04-03T13:08:48;2.87;;;2.63;;
69906;SDS011;57190;47.918;8.112;2023-04-03T13:11:18;2.47;;;2.27;;
69906;SDS011;57190;47.918;8.112;2023-04-03T13:13:59;2.30;;;2.10;;
69906;SDS011;57190;47.918;8.112;2023-04-03T13:16:28;2.50;;;2.30;;
69906;SDS011;57190;47.918;8.112;2023-04-03T13:18:54;2.47;;;2.27;;
69906;SDS011;57190;47.918;8.112;2023-04-03T13:21:26;2.13;;;2.03;;
69906;SDS011;57190;47.918;8.112;2023-04-03T13:23:57;2.10;;;1.97;;
69906;SDS011;57190;47.918;8.112;2023-04-03T13:26:28;2.13;;;2.00;;
69906;SDS011;57190;47.918;8.112;2023-04-03T13:29:00;2.47;;;2.37;;
69906;SDS011;57190;47.918;8.112;2023-04-03T13:31:32;2.70;;;2.50;;
69906;SDS011;57190;47.918;8.112;2023-04-03T13:36:42;2.37;;;2.17;;
69906;SDS011;57190;47.918;8.112;2023-04-03T13:41:39;2.23;;;2.03;;
69906;SDS011;57190;47.918;8.112;2023-04-03T13:46:52;2.13;;;2.00;;
69906;SDS011;57190;47.918;8.112;2023-04-03T13:49:31;2.30;;;2.10;;
69906;SDS011;57190;47.918;8.112;2023-04-03T13:52:03;2.13;;;2.00;;
69906;SDS011;57190;47.918;8.112;2023-04-03T13:54:47;2.60;;;2.40;;
69906;SDS011;57190;47.918;8.112;2023-04-03T13:57:17;2.60;;;2.40;;
69906;SDS011;57190;47.918;8.112;2023-04-03T13:59:43;4.00;;;2.17;;
69906;SDS011;57190;47.918;8.112;2023-04-03T14:07:05;2.40;;;2.20;;
69906;SDS011;57190;47.918;8.112;2023-04-03T14:09:31;2.30;;;1.97;;
69906;SDS011;57190;47.918;8.112;2023-04-03T14:12:01;2.20;;;2.10;;
69906;SDS011;57190;47.918;8.112;2023-04-03T14:14:32;2.07;;;1.87;;
69906;SDS011;57190;47.918;8.112;2023-04-03T14:17:00;2.50;;;2.30;;
69906;SDS011;57190;47.918;8.112;2023-04-03T14:19:31;3.10;;;2.40;;
69906;SDS011;57190;47.918;8.112;2023-04-03T14:21:58;2.13;;;2.00;;
69906;SDS011;57190;47.918;8.112;2023-04-03T14:24:25;2.57;;;2.37;;
69906;SDS011;57190;47.918;8.112;2023-04-03T14:26:53;2.17;;;2.07;;
69906;SDS011;57190;47.918;8.112;2023-04-03T14:29:20;2.60;;;2.40;;
69906;SDS011;57190;47.918;8.112;2023-04-03T14:31:46;2.27;;;2.17;;
69906;SDS011;57190;47.918;8.112;2023-04-03T14:34:13;2.43;;;2.23;;
69906;SDS011;57190;47.918;8.112;2023-04-03T14:36:40;2.17;;;2.00;;
69906;SDS011;57190;47.918;8.112;2023-04-03T14:39:07;1.80;;;1.70;;
69906;SDS011;57190;47.918;8.112;2023-04-03T14:41:36;2.30;;;2.10;;
69906;SDS011;57190;47.918;8.112;2023-04-03T14:44:02;2.10;;;2.00;;
69906;SDS011;57190;47.918;8.112;2023-04-03T14:46:38;2.53;;;2.37;;
69906;SDS011;57190;47.918;8.112;2023-04-03T14:49:18;2.50;;;2.30;;
69906;SDS011;57190;47.918;8.112;2023-04-03T14:51:46;2.60;;;1.87;;
69906;SDS011;57190;47.918;8.112;2023-04-03T14:54:17;2.27;;;2.07;;
69906;SDS011;57190;47.918;8.112;2023-04-03T14:56:46;2.57;;;2.37;;
69906;SDS011;57190;47.918;8.112;2023-04-03T14:59:13;2.30;;;2.10;;
69906;SDS011;57190;47.918;8.112;2023-04-03T15:01:40;2.33;;;2.23;;
69906;SDS011;57190;47.918;8.112;2023-04-03T15:04:13;2.57;;;2.20;;
69906;SDS011;57190;47.918;8.112;2023-04-03T15:06:40;2.33;;;2.23;;
69906;SDS011;57190;47.918;8.112;2023-04-03T15:09:10;2.83;;;2.63;;
69906;SDS011;57190;47.918;8.112;2023-04-03T15:11:44;2.00;;;1.90;;
69906;SDS011;57190;47.918;8.112;2023-04-03T15:14:10;2.57;;;2.37;;
69906;SDS011;57190;47.918;8.112;2023-04-03T15:16:35;2.70;;;2.37;;
69906;SDS011;57190;47.918;8.112;2023-04-03T15:19:01;4.10;;;1.93;;
69906;SDS011;57190;47.918;8.112;2023-04-03T15:21:26;2.30;;;2.10;;
69906;SDS011;57190;47.918;8.112;2023-04-03T15:23:52;2.60;;;2.40;;
69906;SDS011;57190;47.918;8.112;2023-04-03T15:26:17;2.63;;;2.40;;
69906;SDS011;57190;47.918;8.112;2023-04-03T15:28:43;2.20;;;2.10;;
69906;SDS011;57190;47.918;8.112;2023-04-03T15:31:10;2.80;;;2.60;;
69906;SDS011;57190;47.918;8.112;2023-04-03T15:33:36;2.40;;;2.20;;
69906;SDS011;57190;47.918;8.112;2023-04-03T15:36:02;2.10;;;2.00;;
69906;SDS011;57190;47.918;8.112;2023-04-03T15:38:29;2.17;;;1.97;;
69906;SDS011;57190;47.918;8.112;2023-04-03T15:40:55;2.10;;;2.00;;
69906;SDS011;57190;47.918;8.112;2023-04-03T15:43:20;2.00;;;1.90;;
69906;SDS011;57190;47.918;8.112;2023-04-03T15:45:46;2.20;;;2.10;;
69906;SDS011;57190;47.918;8.112;2023-04-03T15:48:12;2.23;;;2.03;;
69906;SDS011;57190;47.918;8.112;2023-04-03T15:50:38;2.27;;;2.07;;
69906;SDS011;57190;47.918;8.112;2023-04-03T15:53:04;2.20;;;2.00;;
69906;SDS011;57190;47.918;8.112;2023-04-03T15:55:31;2.27;;;2.17;;
69906;SDS011;57190;47.918;8.112;2023-04-03T15:57:58;1.83;;;1.73;;
69906;SDS011;57190;47.918;8.112;2023-04-03T16:00:24;2.13;;;1.80;;
69906;SDS011;57190;47.918;8.112;2023-04-03T16:02:55;2.23;;;2.03;;
69906;SDS011;57190;47.918;8.112;2023-04-03T16:05:24;2.37;;;2.00;;
69906;SDS011;57190;47.918;8.112;2023-04-03T16:07:50;2.30;;;1.83;;
69906;SDS011;57190;47.918;8.112;2023-04-03T16:10:17;2.30;;;2.13;;
69906;SDS011;57190;47.918;8.112;2023-04-03T16:12:43;2.07;;;1.97;;
69906;SDS011;57190;47.918;8.112;2023-04-03T16:15:09;2.77;;;2.33;;
69906;SDS011;57190;47.918;8.112;2023-04-03T16:17:36;2.23;;;2.00;;
69906;SDS011;57190;47.918;8.112;2023-04-03T16:20:03;2.30;;;2.10;;
69906;SDS011;57190;47.918;8.112;2023-04-03T16:22:30;2.10;;;1.90;;
69906;SDS011;57190;47.918;8.112;2023-04-03T16:24:56;2.30;;;2.10;;
69906;SDS011;57190;47.918;8.112;2023-04-03T16:27:22;2.43;;;1.97;;
69906;SDS011;57190;47.918;8.112;2023-04-03T16:29:52;2.33;;;2.13;;
69906;SDS011;57190;47.918;8.112;2023-04-03T16:32:22;2.23;;;1.80;;
69906;SDS011;57190;47.918;8.112;2023-04-03T16:34:49;2.40;;;2.17;;
69906;SDS011;57190;47.918;8.112;2023-04-03T16:37:15;2.30;;;2.10;;
69906;SDS011;57190;47.918;8.112;2023-04-03T16:39:42;2.00;;;1.80;;
69906;SDS011;57190;47.918;8.112;2023-04-03T16:42:07;1.97;;;1.80;;
69906;SDS011;57190;47.918;8.112;2023-04-03T16:44:34;2.17;;;1.97;;
69906;SDS011;57190;47.918;8.112;2023-04-03T16:47:00;2.30;;;2.10;;
69906;SDS011;57190;47.918;8.112;2023-04-03T16:49:26;3.87;;;2.17;;
69906;SDS011;57190;47.918;8.112;2023-04-03T16:51:55;2.10;;;1.93;;
69906;SDS011;57190;47.918;8.112;2023-04-03T16:54:20;2.50;;;1.90;;
69906;SDS011;57190;47.918;8.112;2023-04-03T16:56:46;3.77;;;2.03;;